createdAt,value
2022-12-16T00:01:36.442Z,15.43
2022-12-16T00:06:39.838Z,17.10
2022-12-16T00:11:47.020Z,18.33
2022-12-16T00:16:50.419Z,17.07
2022-12-16T00:21:53.863Z,17.53
2022-12-16T00:27:02.799Z,16.93
2022-12-16T00:32:06.644Z,17.33
2022-12-16T00:37:11.200Z,15.53
2022-12-16T00:42:15.839Z,17.33
2022-12-16T00:47:19.056Z,17.23
2022-12-16T00:52:22.324Z,17.97
2022-12-16T00:57:27.132Z,17.63
2022-12-16T01:02:30.701Z,16.23
2022-12-16T01:07:35.126Z,19.13
2022-12-16T01:12:41.918Z,17.40
2022-12-16T01:17:45.605Z,17.33
2022-12-16T01:22:49.356Z,18.10
2022-12-16T01:27:58.640Z,19.37
2022-12-16T01:33:02.011Z,19.23
2022-12-16T01:38:06.796Z,19.13
2022-12-16T01:43:13.862Z,18.27
2022-12-16T01:48:23.422Z,17.33
2022-12-16T01:53:27.797Z,18.30
2022-12-16T01:58:38.043Z,19.57
2022-12-16T02:03:43.333Z,18.97
2022-12-16T02:08:48.474Z,19.77
2022-12-16T02:14:16.681Z,19.17
2022-12-16T02:19:46.909Z,20.00
2022-12-16T02:25:12.755Z,19.83
2022-12-16T02:30:40.556Z,17.80
2022-12-16T02:35:51.814Z,18.53
2022-12-16T02:41:02.267Z,18.67
2022-12-16T02:46:08.932Z,19.27
2022-12-16T02:51:12.499Z,19.93
2022-12-16T02:56:27.894Z,20.30
2022-12-16T03:01:39.395Z,20.37
2022-12-16T03:06:47.505Z,19.00
2022-12-16T03:11:54.292Z,18.27
2022-12-16T03:17:00.365Z,18.83
2022-12-16T03:22:08.705Z,18.53
2022-12-16T03:27:18.507Z,18.27
2022-12-16T03:32:29.210Z,19.93
2022-12-16T03:37:37.324Z,18.13
2022-12-16T03:42:42.300Z,18.67
2022-12-16T03:47:52.390Z,18.33
2022-12-16T03:52:55.651Z,17.40
2022-12-16T03:58:00.226Z,18.40
2022-12-16T04:03:06.774Z,17.43
2022-12-16T04:08:10.152Z,17.53
2022-12-16T04:13:31.056Z,16.87
2022-12-16T04:18:53.868Z,16.97
2022-12-16T04:24:16.976Z,17.13
2022-12-16T04:29:22.494Z,17.93
2022-12-16T04:34:27.780Z,17.03
2022-12-16T04:39:52.796Z,16.47
2022-12-16T04:45:14.136Z,18.60
2022-12-16T04:50:51.182Z,17.17
2022-12-16T04:56:13.811Z,17.43
2022-12-16T05:01:36.379Z,16.40
2022-12-16T05:06:58.370Z,16.40
2022-12-16T05:12:15.502Z,16.23
2022-12-16T05:17:36.512Z,17.17
2022-12-16T05:22:59.061Z,16.93
2022-12-16T05:28:20.943Z,18.23
2022-12-16T05:33:41.863Z,18.90
2022-12-16T05:39:04.022Z,16.30
2022-12-16T05:44:25.581Z,16.50
2022-12-16T05:49:46.282Z,17.87
2022-12-16T05:55:08.347Z,19.80
2022-12-16T06:00:30.909Z,18.30
2022-12-16T06:05:51.742Z,18.80
2022-12-16T06:11:13.677Z,17.37
2022-12-16T06:16:37.141Z,17.30
2022-12-16T06:21:59.810Z,17.40
2022-12-16T06:27:32.148Z,16.57
2022-12-16T06:32:53.242Z,18.20
2022-12-16T06:38:25.995Z,18.80
2022-12-16T06:43:48.171Z,17.87
2022-12-16T06:49:08.791Z,16.43
2022-12-16T06:54:29.258Z,17.73
2022-12-16T06:59:51.348Z,18.37
2022-12-16T07:05:11.902Z,18.53
2022-12-16T07:10:32.703Z,17.73
2022-12-16T07:15:54.993Z,17.37
2022-12-16T07:21:15.647Z,15.10
2022-12-16T07:26:36.145Z,16.93
2022-12-16T07:32:12.903Z,16.10
2022-12-16T07:37:33.689Z,15.37
2022-12-16T07:42:54.776Z,14.20
2022-12-16T07:48:16.931Z,13.93
2022-12-16T07:53:38.256Z,11.27
2022-12-16T07:58:59.792Z,11.13
2022-12-16T08:04:22.009Z,11.57
2022-12-16T08:09:42.699Z,12.40
2022-12-16T08:15:03.407Z,12.17
2022-12-16T08:20:27.091Z,12.00
2022-12-16T08:25:47.801Z,12.90
2022-12-16T08:31:09.014Z,12.43
2022-12-16T08:36:31.007Z,11.30
2022-12-16T08:41:51.523Z,11.73
2022-12-16T08:47:13.209Z,10.80
2022-12-16T08:52:49.313Z,14.73
2022-12-16T08:58:12.420Z,10.73
2022-12-16T09:03:33.372Z,10.80
2022-12-16T09:08:55.746Z,9.90
2022-12-16T09:14:19.095Z,9.40
2022-12-16T09:19:39.917Z,9.07
2022-12-16T09:25:01.887Z,10.37
2022-12-16T09:30:23.304Z,9.40
2022-12-16T09:35:43.885Z,8.47
2022-12-16T09:41:14.059Z,9.63
2022-12-16T09:46:44.939Z,10.07
2022-12-16T09:52:06.598Z,9.23
2022-12-16T09:57:28.694Z,9.67
2022-12-16T10:02:49.703Z,8.83
2022-12-16T10:08:20.182Z,9.77
2022-12-16T10:13:51.980Z,9.07
2022-12-16T10:19:23.755Z,8.90
2022-12-16T10:24:54.285Z,9.30
2022-12-16T10:30:20.247Z,9.00
2022-12-16T10:35:45.701Z,8.37
2022-12-16T10:41:06.591Z,8.90
2022-12-16T10:46:36.643Z,8.53
2022-12-16T10:52:06.771Z,8.20
2022-12-16T10:57:35.292Z,9.13
2022-12-16T11:02:58.432Z,8.67
2022-12-16T11:08:19.187Z,8.27
2022-12-16T11:13:44.976Z,8.27
2022-12-16T11:19:09.302Z,8.23
2022-12-16T11:24:35.614Z,8.33
2022-12-16T11:30:21.533Z,8.87
2022-12-16T11:35:46.937Z,7.23
2022-12-16T11:41:09.068Z,6.93
2022-12-16T11:46:38.532Z,8.03
2022-12-16T11:52:28.379Z,7.23
2022-12-16T11:57:57.337Z,7.80
2022-12-16T12:03:24.518Z,7.17
2022-12-16T12:08:58.040Z,7.73
2022-12-16T12:14:28.954Z,7.63
2022-12-16T12:20:00.097Z,7.63
2022-12-16T12:25:29.398Z,7.33
2022-12-16T12:31:05.506Z,7.73
2022-12-16T12:36:37.938Z,7.10
2022-12-16T12:42:16.043Z,5.93
2022-12-16T12:47:39.904Z,5.73
2022-12-16T12:53:32.420Z,6.50
2022-12-16T12:58:57.578Z,6.60
2022-12-16T13:04:25.763Z,6.67
2022-12-16T13:09:54.860Z,6.57
2022-12-16T13:15:23.142Z,6.87
2022-12-16T13:20:56.763Z,6.37
2022-12-16T13:26:29.125Z,6.53
2022-12-16T13:31:52.111Z,5.77
2022-12-16T13:37:23.556Z,6.70
2022-12-16T13:43:10.941Z,5.80
2022-12-16T13:48:57.441Z,5.97
2022-12-16T13:54:19.210Z,4.83
2022-12-16T13:59:43.492Z,6.20
2022-12-16T14:05:17.750Z,5.40
2022-12-16T14:10:47.416Z,5.43
2022-12-16T14:16:20.387Z,6.13
2022-12-16T14:21:47.806Z,5.70
2022-12-16T14:27:09.365Z,5.73
2022-12-16T14:32:40.084Z,4.53
2022-12-16T14:38:02.122Z,4.90
2022-12-16T14:43:29.423Z,5.60
2022-12-16T14:48:54.033Z,6.07
2022-12-16T14:54:35.303Z,5.40
2022-12-16T14:59:55.798Z,6.47
2022-12-16T15:05:16.891Z,6.53
2022-12-16T15:10:45.388Z,6.03
2022-12-16T15:16:12.546Z,6.40
2022-12-16T15:21:33.513Z,5.93
2022-12-16T15:26:55.668Z,6.40
2022-12-16T15:32:16.473Z,7.60
2022-12-16T15:37:43.759Z,7.27
2022-12-16T15:43:09.887Z,7.63
2022-12-16T15:48:35.134Z,6.37
2022-12-16T15:53:57.605Z,7.13
2022-12-16T15:59:40.148Z,6.97
2022-12-16T16:05:05.898Z,7.20
2022-12-16T16:10:34.047Z,5.33
2022-12-16T16:15:56.258Z,5.97
2022-12-16T16:21:16.987Z,6.27
2022-12-16T16:26:40.985Z,7.13
2022-12-16T16:32:04.307Z,5.70
2022-12-16T16:37:33.230Z,5.77
2022-12-16T16:42:53.964Z,5.77
2022-12-16T16:48:25.176Z,6.07
2022-12-16T16:53:55.087Z,6.33
2022-12-16T16:59:15.711Z,5.73
2022-12-16T17:04:37.668Z,7.83
2022-12-16T17:09:58.386Z,7.40
2022-12-16T17:15:19.069Z,6.40
2022-12-16T17:20:44.345Z,6.00
2022-12-16T17:26:05.168Z,6.27
2022-12-16T17:31:26.946Z,5.37
2022-12-16T17:36:49.227Z,6.10
2022-12-16T17:42:10.407Z,4.63
2022-12-16T17:47:31.253Z,5.63
2022-12-16T17:52:53.327Z,6.07
2022-12-16T17:58:14.521Z,6.10
2022-12-16T18:03:35.863Z,5.30
2022-12-16T18:08:58.790Z,5.87
2022-12-16T18:14:19.580Z,6.80
2022-12-16T18:19:40.399Z,5.93
2022-12-16T18:25:02.520Z,5.33
2022-12-16T18:30:23.711Z,6.60
2022-12-16T18:35:44.552Z,5.90
2022-12-16T18:41:06.633Z,7.00
2022-12-16T18:46:28.034Z,6.90
2022-12-16T18:51:49.051Z,6.50
2022-12-16T18:57:10.147Z,6.23
2022-12-16T19:02:31.051Z,5.80
2022-12-16T19:07:51.655Z,6.40
2022-12-16T19:13:15.872Z,5.73
2022-12-16T19:18:37.011Z,5.37
2022-12-16T19:23:57.923Z,6.27
2022-12-16T19:29:20.090Z,6.03
2022-12-16T19:34:40.612Z,5.90
2022-12-16T19:39:57.727Z,6.77
2022-12-16T19:45:19.912Z,6.60
2022-12-16T19:50:40.921Z,6.90
2022-12-16T19:56:01.644Z,5.60
2022-12-16T20:01:28.005Z,6.40
2022-12-16T20:06:49.712Z,6.67
2022-12-16T20:12:10.936Z,6.73
2022-12-16T20:17:33.684Z,6.17
2022-12-16T20:22:54.345Z,6.27
2022-12-16T20:28:21.729Z,8.57
2022-12-16T20:33:47.425Z,9.30
2022-12-16T20:39:04.658Z,7.50
2022-12-16T20:44:25.645Z,7.87
2022-12-16T20:49:47.834Z,7.63
2022-12-16T20:55:08.466Z,7.57
2022-12-16T21:00:31.647Z,7.07
2022-12-16T21:05:54.002Z,6.83
2022-12-16T21:11:31.567Z,7.30
2022-12-16T21:16:52.181Z,8.00
2022-12-16T21:22:17.639Z,7.43
2022-12-16T21:27:38.527Z,6.97
2022-12-16T21:32:59.244Z,8.60
2022-12-16T21:38:30.094Z,7.57
2022-12-16T21:43:53.124Z,7.70
2022-12-16T21:49:14.648Z,7.53
2022-12-16T21:54:36.650Z,7.50
2022-12-16T21:59:57.476Z,7.23
2022-12-16T22:05:18.357Z,7.30
2022-12-16T22:10:40.695Z,7.70
2022-12-16T22:16:02.794Z,7.83
2022-12-16T22:21:25.002Z,8.30
2022-12-16T22:26:47.253Z,8.30
2022-12-16T22:32:08.206Z,7.30
2022-12-16T22:37:28.925Z,7.97
2022-12-16T22:42:51.665Z,8.83
2022-12-16T22:48:12.896Z,8.00
2022-12-16T22:53:39.884Z,8.53
2022-12-16T22:59:02.612Z,7.13
2022-12-16T23:04:24.135Z,8.13
2022-12-16T23:09:46.186Z,8.47
2022-12-16T23:15:13.343Z,8.53
2022-12-16T23:20:39.803Z,8.33
2022-12-16T23:26:00.864Z,8.57
2022-12-16T23:31:22.931Z,9.30
2022-12-16T23:36:43.635Z,8.70
2022-12-16T23:42:05.438Z,8.33
2022-12-16T23:47:27.832Z,8.27
2022-12-16T23:52:48.383Z,8.27
2022-12-16T23:58:19.149Z,7.97
